sensor_id;sensor_type;location;lat;lon;timestamp;pressure;altitude;pressure_sealevel;temperature;humidity
58991;BME280;44781;53.444;14.476;2022-10-29T00:01:15;101752.90;;;14.30;91.64
58991;BME280;44781;53.444;14.476;2022-10-29T00:03:42;101746.06;;;14.36;91.57
58991;BME280;44781;53.444;14.476;2022-10-29T00:06:10;101733.55;;;14.44;91.72
58991;BME280;44781;53.444;14.476;2022-10-29T00:08:37;101729.80;;;14.53;91.77
58991;BME280;44781;53.444;14.476;2022-10-29T00:13:32;101745.34;;;14.69;91.62
58991;BME280;44781;53.444;14.476;2022-10-29T00:16:02;101742.17;;;14.75;91.57
58991;BME280;44781;53.444;14.476;2022-10-29T00:18:29;101752.55;;;14.82;91.28
58991;BME280;44781;53.444;14.476;2022-10-29T00:21:03;101756.60;;;14.86;91.07
58991;BME280;44781;53.444;14.476;2022-10-29T00:23:30;101761.89;;;14.91;90.99
58991;BME280;44781;53.444;14.476;2022-10-29T00:25:57;101767.50;;;14.97;90.73
58991;BME280;44781;53.444;14.476;2022-10-29T00:28:24;101766.46;;;15.02;90.55
58991;BME280;44781;53.444;14.476;2022-10-29T00:30:51;101766.09;;;15.04;90.34
58991;BME280;44781;53.444;14.476;2022-10-29T00:33:18;101769.61;;;15.07;90.15
58991;BME280;44781;53.444;14.476;2022-10-29T00:35:56;101774.92;;;15.09;90.00
58991;BME280;44781;53.444;14.476;2022-10-29T00:38:24;101773.89;;;15.11;89.61
58991;BME280;44781;53.444;14.476;2022-10-29T00:40:52;101773.94;;;15.13;89.40
58991;BME280;44781;53.444;14.476;2022-10-29T00:43:20;101773.81;;;15.16;89.45
58991;BME280;44781;53.444;14.476;2022-10-29T00:45:52;101775.56;;;15.21;89.47
58991;BME280;44781;53.444;14.476;2022-10-29T00:48:20;101772.74;;;15.26;89.32
58991;BME280;44781;53.444;14.476;2022-10-29T00:50:49;101771.94;;;15.31;89.04
58991;BME280;44781;53.444;14.476;2022-10-29T00:53:23;101770.70;;;15.35;88.85
58991;BME280;44781;53.444;14.476;2022-10-29T00:55:52;101772.98;;;15.38;88.68
58991;BME280;44781;53.444;14.476;2022-10-29T00:58:23;101776.78;;;15.40;88.38
58991;BME280;44781;53.444;14.476;2022-10-29T01:00:51;101783.30;;;15.41;88.31
58991;BME280;44781;53.444;14.476;2022-10-29T01:03:29;101787.72;;;15.41;87.97
58991;BME280;44781;53.444;14.476;2022-10-29T01:05:56;101795.80;;;15.42;88.08
58991;BME280;44781;53.444;14.476;2022-10-29T01:08:24;101790.52;;;15.44;87.86
58991;BME280;44781;53.444;14.476;2022-10-29T01:16:16;101792.37;;;15.51;87.33
58991;BME280;44781;53.444;14.476;2022-10-29T01:21:40;101778.02;;;15.51;87.03
58991;BME280;44781;53.444;14.476;2022-10-29T01:27:03;101782.62;;;15.49;86.60
58991;BME280;44781;53.444;14.476;2022-10-29T01:29:58;101787.74;;;15.49;86.34
58991;BME280;44781;53.444;14.476;2022-10-29T01:32:23;101792.11;;;15.50;86.33
58991;BME280;44781;53.444;14.476;2022-10-29T01:40:40;101801.88;;;15.51;85.93
58991;BME280;44781;53.444;14.476;2022-10-29T01:43:14;101798.59;;;15.50;85.82
58991;BME280;44781;53.444;14.476;2022-10-29T01:45:51;101794.34;;;15.47;85.71
58991;BME280;44781;53.444;14.476;2022-10-29T01:48:25;101793.10;;;15.45;85.87
58991;BME280;44781;53.444;14.476;2022-10-29T01:50:56;101784.45;;;15.44;86.09
58991;BME280;44781;53.444;14.476;2022-10-29T01:53:24;101781.34;;;15.45;86.24
58991;BME280;44781;53.444;14.476;2022-10-29T01:55:53;101790.07;;;15.47;86.33
58991;BME280;44781;53.444;14.476;2022-10-29T01:58:20;101799.05;;;15.48;86.46
58991;BME280;44781;53.444;14.476;2022-10-29T02:01:05;101802.54;;;15.49;86.35
58991;BME280;44781;53.444;14.476;2022-10-29T02:14:32;101822.82;;;15.45;86.08
58991;BME280;44781;53.444;14.476;2022-10-29T02:16:59;101816.57;;;15.45;86.20
58991;BME280;44781;53.444;14.476;2022-10-29T02:19:29;101816.05;;;15.45;86.05
58991;BME280;44781;53.444;14.476;2022-10-29T02:21:56;101816.70;;;15.44;85.82
58991;BME280;44781;53.444;14.476;2022-10-29T02:24:23;101815.08;;;15.42;85.58
58991;BME280;44781;53.444;14.476;2022-10-29T02:26:50;101808.39;;;15.38;85.46
58991;BME280;44781;53.444;14.476;2022-10-29T02:29:17;101808.13;;;15.35;85.56
58991;BME280;44781;53.444;14.476;2022-10-29T02:31:44;101807.30;;;15.32;85.44
58991;BME280;44781;53.444;14.476;2022-10-29T02:34:12;101806.71;;;15.30;85.50
58991;BME280;44781;53.444;14.476;2022-10-29T02:36:39;101803.62;;;15.29;85.42
58991;BME280;44781;53.444;14.476;2022-10-29T02:39:06;101808.13;;;15.28;85.40
58991;BME280;44781;53.444;14.476;2022-10-29T02:41:34;101810.89;;;15.27;85.40
58991;BME280;44781;53.444;14.476;2022-10-29T02:44:00;101814.46;;;15.25;85.45
58991;BME280;44781;53.444;14.476;2022-10-29T02:46:30;101815.19;;;15.22;85.49
58991;BME280;44781;53.444;14.476;2022-10-29T02:48:57;101811.10;;;15.19;85.69
58991;BME280;44781;53.444;14.476;2022-10-29T02:51:24;101810.36;;;15.18;85.69
58991;BME280;44781;53.444;14.476;2022-10-29T02:53:51;101811.38;;;15.16;85.56
58991;BME280;44781;53.444;14.476;2022-10-29T02:56:18;101809.46;;;15.13;84.89
58991;BME280;44781;53.444;14.476;2022-10-29T02:58:45;101814.98;;;15.09;84.45
58991;BME280;44781;53.444;14.476;2022-10-29T03:01:12;101814.99;;;15.04;83.90
58991;BME280;44781;53.444;14.476;2022-10-29T03:03:38;101811.95;;;15.00;83.85
58991;BME280;44781;53.444;14.476;2022-10-29T03:06:13;101811.02;;;14.93;83.36
58991;BME280;44781;53.444;14.476;2022-10-29T03:08:40;101807.98;;;14.85;83.06
58991;BME280;44781;53.444;14.476;2022-10-29T03:11:07;101809.20;;;14.76;83.00
58991;BME280;44781;53.444;14.476;2022-10-29T03:13:34;101812.66;;;14.68;83.27
58991;BME280;44781;53.444;14.476;2022-10-29T03:16:01;101815.84;;;14.61;83.48
58991;BME280;44781;53.444;14.476;2022-10-29T03:18:28;101824.29;;;14.57;84.03
58991;BME280;44781;53.444;14.476;2022-10-29T03:20:55;101828.98;;;14.56;84.39
58991;BME280;44781;53.444;14.476;2022-10-29T03:23:22;101826.76;;;14.55;84.45
58991;BME280;44781;53.444;14.476;2022-10-29T03:25:50;101832.23;;;14.53;84.44
58991;BME280;44781;53.444;14.476;2022-10-29T03:28:20;101837.69;;;14.49;84.37
58991;BME280;44781;53.444;14.476;2022-10-29T03:30:47;101836.97;;;14.44;84.13
58991;BME280;44781;53.444;14.476;2022-10-29T03:33:14;101850.65;;;14.40;84.17
58991;BME280;44781;53.444;14.476;2022-10-29T03:35:41;101856.61;;;14.33;84.01
58991;BME280;44781;53.444;14.476;2022-10-29T03:38:08;101855.55;;;14.29;84.03
58991;BME280;44781;53.444;14.476;2022-10-29T03:40:35;101857.81;;;14.27;84.56
58991;BME280;44781;53.444;14.476;2022-10-29T03:43:02;101858.59;;;14.27;84.74
58991;BME280;44781;53.444;14.476;2022-10-29T03:45:29;101854.10;;;14.27;85.09
58991;BME280;44781;53.444;14.476;2022-10-29T03:47:55;101850.92;;;14.29;85.90
58991;BME280;44781;53.444;14.476;2022-10-29T03:50:22;101849.42;;;14.32;86.52
58991;BME280;44781;53.444;14.476;2022-10-29T03:52:49;101854.52;;;14.35;87.20
58991;BME280;44781;53.444;14.476;2022-10-29T03:55:16;101854.86;;;14.38;87.84
58991;BME280;44781;53.444;14.476;2022-10-29T03:57:43;101853.54;;;14.42;88.04
58991;BME280;44781;53.444;14.476;2022-10-29T04:00:12;101859.33;;;14.45;88.60
58991;BME280;44781;53.444;14.476;2022-10-29T04:02:42;101859.77;;;14.51;89.13
58991;BME280;44781;53.444;14.476;2022-10-29T04:05:09;101869.19;;;14.56;89.45
58991;BME280;44781;53.444;14.476;2022-10-29T04:07:35;101875.71;;;14.59;89.73
58991;BME280;44781;53.444;14.476;2022-10-29T04:10:02;101876.23;;;14.64;90.04
58991;BME280;44781;53.444;14.476;2022-10-29T04:12:30;101882.28;;;14.69;90.28
58991;BME280;44781;53.444;14.476;2022-10-29T04:14:57;101883.90;;;14.75;90.50
58991;BME280;44781;53.444;14.476;2022-10-29T04:17:24;101887.48;;;14.82;90.53
58991;BME280;44781;53.444;14.476;2022-10-29T04:19:52;101887.42;;;14.88;90.69
58991;BME280;44781;53.444;14.476;2022-10-29T04:22:19;101889.50;;;14.91;90.76
58991;BME280;44781;53.444;14.476;2022-10-29T04:24:46;101891.08;;;14.93;90.71
58991;BME280;44781;53.444;14.476;2022-10-29T04:27:14;101888.91;;;14.91;90.47
58991;BME280;44781;53.444;14.476;2022-10-29T04:29:40;101888.55;;;14.92;90.41
58991;BME280;44781;53.444;14.476;2022-10-29T04:32:07;101888.78;;;14.91;90.51
58991;BME280;44781;53.444;14.476;2022-10-29T04:34:36;101885.35;;;14.91;90.61
58991;BME280;44781;53.444;14.476;2022-10-29T04:37:04;101886.13;;;14.93;90.65
58991;BME280;44781;53.444;14.476;2022-10-29T04:39:30;101885.41;;;14.93;90.60
58991;BME280;44781;53.444;14.476;2022-10-29T04:41:57;101884.48;;;14.94;90.67
58991;BME280;44781;53.444;14.476;2022-10-29T04:44:24;101885.05;;;14.93;90.80
58991;BME280;44781;53.444;14.476;2022-10-29T04:46:52;101885.34;;;14.92;90.70
58991;BME280;44781;53.444;14.476;2022-10-29T04:49:19;101884.65;;;14.91;90.61
58991;BME280;44781;53.444;14.476;2022-10-29T04:51:46;101882.46;;;14.92;90.86
58991;BME280;44781;53.444;14.476;2022-10-29T04:54:14;101883.16;;;14.95;91.02
58991;BME280;44781;53.444;14.476;2022-10-29T04:56:41;101883.68;;;14.97;90.81
58991;BME280;44781;53.444;14.476;2022-10-29T04:59:08;101880.07;;;14.98;90.93
58991;BME280;44781;53.444;14.476;2022-10-29T05:01:35;101881.36;;;14.97;90.86
58991;BME280;44781;53.444;14.476;2022-10-29T05:04:01;101876.84;;;14.94;90.70
58991;BME280;44781;53.444;14.476;2022-10-29T05:06:28;101872.92;;;14.91;90.72
58991;BME280;44781;53.444;14.476;2022-10-29T05:08:56;101871.20;;;14.90;90.79
58991;BME280;44781;53.444;14.476;2022-10-29T05:11:23;101877.90;;;14.91;91.04
58991;BME280;44781;53.444;14.476;2022-10-29T05:13:50;101879.91;;;14.93;90.97
58991;BME280;44781;53.444;14.476;2022-10-29T05:16:17;101888.16;;;14.97;90.70
58991;BME280;44781;53.444;14.476;2022-10-29T05:18:44;101883.80;;;14.98;90.70
58991;BME280;44781;53.444;14.476;2022-10-29T05:21:13;101893.52;;;14.99;90.60
58991;BME280;44781;53.444;14.476;2022-10-29T05:23:41;101897.38;;;14.97;90.52
58991;BME280;44781;53.444;14.476;2022-10-29T05:26:08;101897.30;;;14.96;90.52
58991;BME280;44781;53.444;14.476;2022-10-29T05:28:35;101905.03;;;14.95;90.59
58991;BME280;44781;53.444;14.476;2022-10-29T05:31:02;101905.46;;;14.94;90.57
58991;BME280;44781;53.444;14.476;2022-10-29T05:33:29;101908.24;;;14.95;90.81
58991;BME280;44781;53.444;14.476;2022-10-29T05:35:57;101914.34;;;14.99;90.78
58991;BME280;44781;53.444;14.476;2022-10-29T05:38:24;101913.14;;;15.03;90.76
58991;BME280;44781;53.444;14.476;2022-10-29T05:40:51;101922.00;;;15.06;90.79
58991;BME280;44781;53.444;14.476;2022-10-29T05:43:18;101926.82;;;15.06;90.57
58991;BME280;44781;53.444;14.476;2022-10-29T05:45:46;101923.43;;;15.06;90.67
58991;BME280;44781;53.444;14.476;2022-10-29T05:48:12;101911.25;;;15.07;90.43
58991;BME280;44781;53.444;14.476;2022-10-29T05:55:57;101910.56;;;15.11;89.74
58991;BME280;44781;53.444;14.476;2022-10-29T05:58:24;101920.18;;;15.08;89.38
58991;BME280;44781;53.444;14.476;2022-10-29T06:00:51;101919.14;;;15.08;89.23
58991;BME280;44781;53.444;14.476;2022-10-29T06:03:19;101914.30;;;15.06;88.95
58991;BME280;44781;53.444;14.476;2022-10-29T06:05:46;101921.85;;;15.03;88.74
58991;BME280;44781;53.444;14.476;2022-10-29T06:08:14;101915.24;;;15.01;88.89
58991;BME280;44781;53.444;14.476;2022-10-29T06:10:41;101921.55;;;15.00;88.92
58991;BME280;44781;53.444;14.476;2022-10-29T06:13:08;101929.50;;;14.98;88.88
58991;BME280;44781;53.444;14.476;2022-10-29T06:15:36;101924.54;;;14.95;88.95
58991;BME280;44781;53.444;14.476;2022-10-29T06:18:03;101922.48;;;14.92;89.08
58991;BME280;44781;53.444;14.476;2022-10-29T06:20:30;101924.50;;;14.87;88.88
58991;BME280;44781;53.444;14.476;2022-10-29T06:22:57;101934.47;;;14.80;89.27
58991;BME280;44781;53.444;14.476;2022-10-29T06:25:25;101943.41;;;14.72;89.45
58991;BME280;44781;53.444;14.476;2022-10-29T06:30:29;101955.74;;;14.62;90.00
58991;BME280;44781;53.444;14.476;2022-10-29T06:32:56;101954.52;;;14.61;90.41
58991;BME280;44781;53.444;14.476;2022-10-29T06:35:24;101954.17;;;14.63;90.74
58991;BME280;44781;53.444;14.476;2022-10-29T06:37:51;101952.65;;;14.67;90.82
58991;BME280;44781;53.444;14.476;2022-10-29T06:40:18;101959.60;;;14.69;91.01
58991;BME280;44781;53.444;14.476;2022-10-29T06:42:46;101946.80;;;14.72;91.21
58991;BME280;44781;53.444;14.476;2022-10-29T06:45:14;101940.23;;;14.74;91.41
58991;BME280;44781;53.444;14.476;2022-10-29T06:47:42;101957.00;;;14.75;91.37
58991;BME280;44781;53.444;14.476;2022-10-29T06:50:10;101969.73;;;14.76;91.35
58991;BME280;44781;53.444;14.476;2022-10-29T06:52:39;101972.14;;;14.77;91.12
58991;BME280;44781;53.444;14.476;2022-10-29T06:55:07;101963.77;;;14.80;91.37
58991;BME280;44781;53.444;14.476;2022-10-29T06:57:36;101957.11;;;14.86;91.52
58991;BME280;44781;53.444;14.476;2022-10-29T07:00:03;101953.38;;;14.91;91.54
58991;BME280;44781;53.444;14.476;2022-10-29T07:02:30;101950.09;;;14.96;91.50
58991;BME280;44781;53.444;14.476;2022-10-29T07:04:57;101954.20;;;14.99;91.40
58991;BME280;44781;53.444;14.476;2022-10-29T07:07:26;101968.23;;;14.99;91.38
58991;BME280;44781;53.444;14.476;2022-10-29T07:09:57;101970.48;;;14.97;91.11
58991;BME280;44781;53.444;14.476;2022-10-29T07:12:25;101963.69;;;14.96;90.93
58991;BME280;44781;53.444;14.476;2022-10-29T07:14:52;101966.76;;;14.95;90.90
58991;BME280;44781;53.444;14.476;2022-10-29T07:17:19;101973.25;;;14.94;90.88
58991;BME280;44781;53.444;14.476;2022-10-29T07:19:49;101985.01;;;14.96;90.86
58991;BME280;44781;53.444;14.476;2022-10-29T07:22:16;101996.70;;;14.96;90.80
58991;BME280;44781;53.444;14.476;2022-10-29T07:24:48;102009.13;;;14.97;90.67
58991;BME280;44781;53.444;14.476;2022-10-29T07:27:18;102003.30;;;14.96;90.85
58991;BME280;44781;53.444;14.476;2022-10-29T07:29:46;101997.20;;;14.95;90.57
58991;BME280;44781;53.444;14.476;2022-10-29T07:32:16;101999.98;;;14.93;90.52
58991;BME280;44781;53.444;14.476;2022-10-29T07:34:43;102005.14;;;14.91;90.52
58991;BME280;44781;53.444;14.476;2022-10-29T07:37:11;102007.52;;;14.90;90.39
58991;BME280;44781;53.444;14.476;2022-10-29T07:39:39;102010.25;;;14.91;90.59
58991;BME280;44781;53.444;14.476;2022-10-29T07:42:09;102014.16;;;14.94;90.41
58991;BME280;44781;53.444;14.476;2022-10-29T07:44:36;102021.64;;;14.96;90.50
58991;BME280;44781;53.444;14.476;2022-10-29T07:47:08;102022.13;;;14.97;90.37
58991;BME280;44781;53.444;14.476;2022-10-29T07:49:35;102022.52;;;14.99;90.31
58991;BME280;44781;53.444;14.476;2022-10-29T07:52:02;102018.41;;;14.99;90.14
58991;BME280;44781;53.444;14.476;2022-10-29T07:54:29;102025.29;;;14.99;90.24
58991;BME280;44781;53.444;14.476;2022-10-29T07:56:57;102037.01;;;15.00;90.34
58991;BME280;44781;53.444;14.476;2022-10-29T07:59:24;102043.23;;;15.00;90.24
58991;BME280;44781;53.444;14.476;2022-10-29T08:01:52;102041.97;;;15.00;90.40
58991;BME280;44781;53.444;14.476;2022-10-29T08:04:22;102037.40;;;14.99;90.05
58991;BME280;44781;53.444;14.476;2022-10-29T08:06:50;102037.48;;;14.98;89.97
58991;BME280;44781;53.444;14.476;2022-10-29T08:09:16;102043.27;;;15.00;89.85
58991;BME280;44781;53.444;14.476;2022-10-29T08:11:44;102043.52;;;15.01;89.77
58991;BME280;44781;53.444;14.476;2022-10-29T08:14:11;102042.95;;;15.04;89.61
58991;BME280;44781;53.444;14.476;2022-10-29T08:16:39;102047.54;;;15.09;89.60
58991;BME280;44781;53.444;14.476;2022-10-29T08:19:06;102052.66;;;15.12;89.46
58991;BME280;44781;53.444;14.476;2022-10-29T08:21:33;102054.38;;;15.13;89.15
58991;BME280;44781;53.444;14.476;2022-10-29T08:24:00;102051.15;;;15.16;88.99
58991;BME280;44781;53.444;14.476;2022-10-29T08:26:27;102039.67;;;15.19;89.10
58991;BME280;44781;53.444;14.476;2022-10-29T08:28:54;102045.48;;;15.20;88.59
58991;BME280;44781;53.444;14.476;2022-10-29T08:31:21;102046.80;;;15.19;88.41
58991;BME280;44781;53.444;14.476;2022-10-29T08:33:48;102044.76;;;15.18;88.06
58991;BME280;44781;53.444;14.476;2022-10-29T08:36:16;102050.61;;;15.16;87.77
58991;BME280;44781;53.444;14.476;2022-10-29T08:38:43;102053.83;;;15.15;87.59
58991;BME280;44781;53.444;14.476;2022-10-29T08:48:51;102069.48;;;15.30;87.15
58991;BME280;44781;53.444;14.476;2022-10-29T08:51:24;102076.05;;;15.35;87.06
58991;BME280;44781;53.444;14.476;2022-10-29T08:53:54;102088.24;;;15.39;86.89
58991;BME280;44781;53.444;14.476;2022-10-29T08:56:25;102100.41;;;15.40;86.31
58991;BME280;44781;53.444;14.476;2022-10-29T08:58:54;102100.41;;;15.40;86.06
58991;BME280;44781;53.444;14.476;2022-10-29T09:01:23;102093.01;;;15.42;86.18
58991;BME280;44781;53.444;14.476;2022-10-29T09:03:51;102090.88;;;15.44;86.12
58991;BME280;44781;53.444;14.476;2022-10-29T09:19:52;102090.14;;;15.72;84.62
58991;BME280;44781;53.444;14.476;2022-10-29T09:32:14;102079.02;;;15.83;82.90
58991;BME280;44781;53.444;14.476;2022-10-29T09:34:51;102082.94;;;15.86;82.37
58991;BME280;44781;53.444;14.476;2022-10-29T09:37:22;102085.55;;;15.90;82.57
58991;BME280;44781;53.444;14.476;2022-10-29T09:39:51;102092.18;;;15.97;82.17
58991;BME280;44781;53.444;14.476;2022-10-29T09:42:22;102102.38;;;16.03;81.80
58991;BME280;44781;53.444;14.476;2022-10-29T09:44:53;102100.02;;;16.06;81.01
58991;BME280;44781;53.444;14.476;2022-10-29T09:47:31;102090.04;;;16.08;80.48
58991;BME280;44781;53.444;14.476;2022-10-29T09:52:40;102093.80;;;16.13;79.53
58991;BME280;44781;53.444;14.476;2022-10-29T09:55:22;102091.81;;;16.15;79.59
58991;BME280;44781;53.444;14.476;2022-10-29T09:57:51;102092.08;;;16.19;79.53
58991;BME280;44781;53.444;14.476;2022-10-29T10:00:21;102094.00;;;16.22;79.04
58991;BME280;44781;53.444;14.476;2022-10-29T10:02:51;102089.48;;;16.23;78.99
58991;BME280;44781;53.444;14.476;2022-10-29T10:05:24;102089.76;;;16.24;78.70
58991;BME280;44781;53.444;14.476;2022-10-29T10:08:11;102079.61;;;16.23;78.47
58991;BME280;44781;53.444;14.476;2022-10-29T10:10:52;102077.85;;;16.23;78.65
58991;BME280;44781;53.444;14.476;2022-10-29T10:13:19;102082.64;;;16.23;78.43
58991;BME280;44781;53.444;14.476;2022-10-29T10:15:49;102082.43;;;16.24;78.22
58991;BME280;44781;53.444;14.476;2022-10-29T10:20:47;102089.84;;;16.27;77.99
58991;BME280;44781;53.444;14.476;2022-10-29T10:29:17;102078.23;;;16.43;76.76
58991;BME280;44781;53.444;14.476;2022-10-29T10:31:45;102070.66;;;16.48;76.37
58991;BME280;44781;53.444;14.476;2022-10-29T10:34:17;102078.25;;;16.54;75.97
58991;BME280;44781;53.444;14.476;2022-10-29T10:36:52;102075.95;;;16.60;75.89
58991;BME280;44781;53.444;14.476;2022-10-29T10:41:48;102061.30;;;16.67;75.76
58991;BME280;44781;53.444;14.476;2022-10-29T10:44:16;102058.56;;;16.68;75.26
58991;BME280;44781;53.444;14.476;2022-10-29T10:46:44;102051.63;;;16.67;75.07
58991;BME280;44781;53.444;14.476;2022-10-29T10:51:41;102048.69;;;16.68;75.02
58991;BME280;44781;53.444;14.476;2022-10-29T10:57:00;102049.23;;;16.65;74.12
58991;BME280;44781;53.444;14.476;2022-10-29T11:04:54;102054.95;;;16.66;74.73
58991;BME280;44781;53.444;14.476;2022-10-29T11:07:23;102054.41;;;16.71;74.57
58991;BME280;44781;53.444;14.476;2022-10-29T11:09:52;102053.47;;;16.76;74.65
58991;BME280;44781;53.444;14.476;2022-10-29T11:12:29;102054.94;;;16.79;74.30
58991;BME280;44781;53.444;14.476;2022-10-29T11:14:58;102054.95;;;16.80;73.66
58991;BME280;44781;53.444;14.476;2022-10-29T11:17:30;102059.04;;;16.77;73.53
58991;BME280;44781;53.444;14.476;2022-10-29T11:20:02;102065.36;;;16.76;73.42
58991;BME280;44781;53.444;14.476;2022-10-29T11:22:37;102057.50;;;16.76;73.31
58991;BME280;44781;53.444;14.476;2022-10-29T11:25:23;102049.55;;;16.75;73.51
58991;BME280;44781;53.444;14.476;2022-10-29T11:28:20;102048.44;;;16.76;73.39
58991;BME280;44781;53.444;14.476;2022-10-29T11:30:41;102046.98;;;16.78;73.72
58991;BME280;44781;53.444;14.476;2022-10-29T11:43:31;102033.09;;;16.92;73.11
58991;BME280;44781;53.444;14.476;2022-10-29T11:46:06;102023.66;;;16.95;72.88
58991;BME280;44781;53.444;14.476;2022-10-29T11:48:58;102026.46;;;17.03;72.87
58991;BME280;44781;53.444;14.476;2022-10-29T12:01:35;102002.48;;;17.33;70.71
58991;BME280;44781;53.444;14.476;2022-10-29T12:06:43;102012.20;;;17.37;70.20
58991;BME280;44781;53.444;14.476;2022-10-29T12:12:03;102013.39;;;17.46;69.75
58991;BME280;44781;53.444;14.476;2022-10-29T12:14:37;102012.82;;;17.48;69.70
58991;BME280;44781;53.444;14.476;2022-10-29T12:24:52;102000.88;;;17.64;69.07
58991;BME280;44781;53.444;14.476;2022-10-29T12:27:29;102004.36;;;17.65;68.97
58991;BME280;44781;53.444;14.476;2022-10-29T12:30:04;102008.55;;;17.64;68.76
58991;BME280;44781;53.444;14.476;2022-10-29T12:35:14;102013.41;;;17.64;68.87
58991;BME280;44781;53.444;14.476;2022-10-29T12:40:24;102011.69;;;17.61;68.70
58991;BME280;44781;53.444;14.476;2022-10-29T12:42:54;102017.93;;;17.59;68.74
58991;BME280;44781;53.444;14.476;2022-10-29T12:55:43;102009.77;;;17.42;69.09
58991;BME280;44781;53.444;14.476;2022-10-29T13:00:58;102011.34;;;17.45;69.33
58991;BME280;44781;53.444;14.476;2022-10-29T13:08:57;102005.86;;;17.64;69.49
58991;BME280;44781;53.444;14.476;2022-10-29T13:11:24;102002.52;;;17.70;69.61
58991;BME280;44781;53.444;14.476;2022-10-29T13:14:08;101999.55;;;17.76;69.82
58991;BME280;44781;53.444;14.476;2022-10-29T13:16:35;101999.64;;;17.81;69.78
58991;BME280;44781;53.444;14.476;2022-10-29T13:19:07;101998.73;;;17.85;69.52
58991;BME280;44781;53.444;14.476;2022-10-29T13:21:59;101994.95;;;17.88;69.21
58991;BME280;44781;53.444;14.476;2022-10-29T13:24:27;101987.10;;;17.87;68.97
58991;BME280;44781;53.444;14.476;2022-10-29T13:26:59;101985.40;;;17.88;69.19
58991;BME280;44781;53.444;14.476;2022-10-29T13:29:40;101984.59;;;17.90;69.18
58991;BME280;44781;53.444;14.476;2022-10-29T13:32:08;101983.71;;;17.92;69.35
58991;BME280;44781;53.444;14.476;2022-10-29T13:34:55;101986.22;;;17.93;69.16
58991;BME280;44781;53.444;14.476;2022-10-29T13:42:48;101990.15;;;17.98;68.95
58991;BME280;44781;53.444;14.476;2022-10-29T13:45:20;101994.47;;;17.97;68.70
58991;BME280;44781;53.444;14.476;2022-10-29T13:47:47;101995.55;;;17.95;68.80
58991;BME280;44781;53.444;14.476;2022-10-29T13:50:18;102001.22;;;17.94;69.01
58991;BME280;44781;53.444;14.476;2022-10-29T13:52:48;102000.05;;;17.91;68.74
58991;BME280;44781;53.444;14.476;2022-10-29T13:55:18;101993.45;;;17.88;68.82
58991;BME280;44781;53.444;14.476;2022-10-29T13:57:57;101991.41;;;17.87;69.15
58991;BME280;44781;53.444;14.476;2022-10-29T14:00:27;101991.09;;;17.85;68.96
58991;BME280;44781;53.444;14.476;2022-10-29T14:05:41;101985.98;;;17.80;69.48
58991;BME280;44781;53.444;14.476;2022-10-29T14:08:12;101984.00;;;17.76;69.56
58991;BME280;44781;53.444;14.476;2022-10-29T14:10:44;101984.60;;;17.73;69.83
58991;BME280;44781;53.444;14.476;2022-10-29T14:18:31;101994.66;;;17.64;69.88
58991;BME280;44781;53.444;14.476;2022-10-29T14:20:59;101987.66;;;17.60;69.95
58991;BME280;44781;53.444;14.476;2022-10-29T14:23:30;101984.69;;;17.55;70.28
58991;BME280;44781;53.444;14.476;2022-10-29T14:25:58;101979.13;;;17.51;70.65
58991;BME280;44781;53.444;14.476;2022-10-29T14:28:26;101976.32;;;17.47;70.83
58991;BME280;44781;53.444;14.476;2022-10-29T14:31:04;101967.54;;;17.43;71.10
58991;BME280;44781;53.444;14.476;2022-10-29T14:33:34;101965.08;;;17.40;71.58
58991;BME280;44781;53.444;14.476;2022-10-29T14:36:23;101956.89;;;17.40;71.77
58991;BME280;44781;53.444;14.476;2022-10-29T14:41:22;101956.47;;;17.43;72.74
58991;BME280;44781;53.444;14.476;2022-10-29T14:44:09;101954.33;;;17.45;72.85
58991;BME280;44781;53.444;14.476;2022-10-29T14:46:42;101952.45;;;17.44;72.74
58991;BME280;44781;53.444;14.476;2022-10-29T14:49:20;101952.10;;;17.44;72.86
58991;BME280;44781;53.444;14.476;2022-10-29T14:51:54;101952.81;;;17.42;72.96
58991;BME280;44781;53.444;14.476;2022-10-29T14:54:22;101959.93;;;17.38;73.18
58991;BME280;44781;53.444;14.476;2022-10-29T14:56:53;101959.00;;;17.34;73.22
58991;BME280;44781;53.444;14.476;2022-10-29T14:59:21;101955.14;;;17.29;73.19
58991;BME280;44781;53.444;14.476;2022-10-29T15:01:51;101955.16;;;17.23;73.14
58991;BME280;44781;53.444;14.476;2022-10-29T15:04:28;101957.88;;;17.16;73.09
58991;BME280;44781;53.444;14.476;2022-10-29T15:09:44;101960.38;;;16.99;73.42
58991;BME280;44781;53.444;14.476;2022-10-29T15:14:45;101947.19;;;16.84;73.63
58991;BME280;44781;53.444;14.476;2022-10-29T15:19:57;101938.54;;;16.74;73.89
58991;BME280;44781;53.444;14.476;2022-10-29T15:22:32;101946.16;;;16.70;74.20
58991;BME280;44781;53.444;14.476;2022-10-29T15:25:01;101953.46;;;16.66;74.33
58991;BME280;44781;53.444;14.476;2022-10-29T15:27:29;101953.04;;;16.63;74.43
58991;BME280;44781;53.444;14.476;2022-10-29T15:29:56;101949.79;;;16.59;74.56
58991;BME280;44781;53.444;14.476;2022-10-29T15:32:25;101948.75;;;16.54;74.67
58991;BME280;44781;53.444;14.476;2022-10-29T15:34:53;101946.81;;;16.47;74.78
58991;BME280;44781;53.444;14.476;2022-10-29T15:42:29;101945.08;;;16.27;75.20
58991;BME280;44781;53.444;14.476;2022-10-29T15:47:37;101944.61;;;16.15;75.33
58991;BME280;44781;53.444;14.476;2022-10-29T15:50:06;101943.98;;;16.12;75.26
58991;BME280;44781;53.444;14.476;2022-10-29T15:52:37;101947.70;;;16.07;75.71
58991;BME280;44781;53.444;14.476;2022-10-29T15:55:09;101950.65;;;16.04;75.69